createdAt,value
2017-10-02T00:01:34.350Z,77.25
2017-10-02T00:04:01.743Z,76.28
2017-10-02T00:06:29.125Z,76.13
2017-10-02T00:08:56.517Z,76.11
2017-10-02T00:11:23.911Z,76.07
2017-10-02T00:13:51.318Z,75.73
2017-10-02T00:16:18.714Z,75.18
2017-10-02T00:18:46.198Z,75.99
2017-10-02T00:21:13.653Z,75.20
2017-10-02T00:23:41.046Z,75.76
2017-10-02T00:26:08.438Z,75.07
2017-10-02T00:28:35.826Z,75.02
2017-10-02T00:31:03.222Z,74.69
2017-10-02T00:33:30.606Z,74.49
2017-10-02T00:35:58.002Z,74.95
2017-10-02T00:38:25.392Z,74.55
2017-10-02T00:40:52.782Z,74.30
2017-10-02T00:43:20.178Z,74.19
2017-10-02T00:45:47.577Z,74.35
2017-10-02T00:48:14.965Z,74.73
2017-10-02T00:50:42.427Z,73.94
2017-10-02T00:53:09.818Z,74.19
2017-10-02T00:55:37.207Z,74.04
2017-10-02T00:58:04.604Z,74.40
2017-10-02T01:00:31.991Z,74.17
2017-10-02T01:02:59.382Z,74.32
2017-10-02T01:05:26.762Z,74.45
2017-10-02T01:07:54.166Z,74.29
2017-10-02T01:10:21.562Z,74.39
2017-10-02T01:12:48.965Z,75.24
2017-10-02T01:15:16.342Z,74.91
2017-10-02T01:17:43.744Z,75.10
2017-10-02T01:20:11.130Z,75.40
2017-10-02T01:22:38.531Z,75.30
2017-10-02T01:25:05.925Z,75.16
2017-10-02T01:27:33.315Z,75.42
2017-10-02T01:30:00.716Z,75.28
2017-10-02T01:32:28.118Z,75.20
2017-10-02T01:34:55.514Z,75.49
2017-10-02T01:37:22.974Z,75.44
2017-10-02T01:39:50.430Z,75.46
2017-10-02T01:42:17.823Z,75.43
2017-10-02T01:44:45.242Z,75.45
2017-10-02T01:47:12.699Z,75.71
2017-10-02T01:49:40.094Z,74.52
2017-10-02T01:52:07.477Z,74.58
2017-10-02T01:54:34.865Z,74.19
2017-10-02T01:57:02.254Z,74.64
2017-10-02T01:59:30.322Z,74.78
2017-10-02T02:01:57.755Z,74.23
2017-10-02T02:04:25.202Z,74.67
2017-10-02T02:06:52.586Z,75.12
2017-10-02T02:09:19.983Z,74.93
2017-10-02T02:11:47.365Z,74.39
2017-10-02T02:14:14.761Z,73.90
2017-10-02T02:16:42.147Z,73.19
2017-10-02T02:19:09.540Z,74.43
2017-10-02T02:21:36.922Z,73.11
2017-10-02T02:24:04.316Z,73.82
2017-10-02T02:26:31.703Z,73.78
2017-10-02T02:28:59.145Z,73.21
2017-10-02T02:31:26.535Z,72.83
2017-10-02T02:33:53.967Z,72.95
2017-10-02T02:36:21.349Z,73.42
2017-10-02T02:38:48.735Z,73.69
2017-10-02T02:41:16.236Z,73.13
2017-10-02T02:43:43.614Z,73.00
2017-10-02T02:46:11.010Z,72.96
2017-10-02T02:48:38.498Z,73.43
2017-10-02T02:51:05.882Z,73.89
2017-10-02T02:53:33.266Z,72.87
2017-10-02T02:56:00.763Z,72.29
2017-10-02T02:58:28.154Z,73.42
2017-10-02T03:00:55.548Z,73.03
2017-10-02T03:03:22.930Z,72.87
2017-10-02T03:05:50.326Z,72.91
2017-10-02T03:08:17.710Z,72.57
2017-10-02T03:10:45.116Z,73.22
2017-10-02T03:13:12.499Z,72.31
2017-10-02T03:15:39.891Z,72.32
2017-10-02T03:18:07.276Z,72.03
2017-10-02T03:20:34.673Z,72.10
2017-10-02T03:23:02.074Z,72.38
2017-10-02T03:25:29.463Z,72.21
2017-10-02T03:27:56.849Z,71.96
2017-10-02T03:30:24.250Z,73.17
2017-10-02T03:32:54.562Z,73.85
2017-10-02T03:35:21.951Z,74.03
2017-10-02T03:37:49.346Z,73.66
2017-10-02T03:40:16.743Z,74.63
2017-10-02T03:42:44.139Z,75.65
2017-10-02T03:45:11.530Z,76.92
2017-10-02T03:47:38.935Z,75.93
2017-10-02T03:50:06.318Z,77.15
2017-10-02T03:52:33.719Z,77.34
2017-10-02T03:55:01.116Z,77.21
2017-10-02T03:57:28.515Z,78.09
2017-10-02T03:59:55.898Z,79.06
2017-10-02T04:02:23.301Z,80.20
2017-10-02T04:04:50.686Z,80.46
2017-10-02T04:07:18.075Z,80.71
2017-10-02T04:09:45.463Z,80.39
2017-10-02T04:12:12.885Z,82.09
2017-10-02T04:14:40.275Z,80.05
2017-10-02T04:17:07.671Z,80.40
2017-10-02T04:19:35.056Z,81.48
2017-10-02T04:22:02.439Z,82.10
2017-10-02T04:24:29.841Z,81.44
2017-10-02T04:26:57.278Z,82.03
2017-10-02T04:29:24.674Z,82.79
2017-10-02T04:31:52.063Z,83.21
2017-10-02T04:34:19.446Z,83.85
2017-10-02T04:36:46.830Z,83.54
2017-10-02T04:39:14.223Z,84.39
2017-10-02T04:41:41.608Z,84.96
2017-10-02T04:44:09.011Z,85.02
2017-10-02T04:46:36.422Z,84.75
2017-10-02T04:49:03.827Z,84.67
2017-10-02T04:51:31.246Z,84.25
2017-10-02T04:53:58.633Z,84.92
2017-10-02T04:56:26.014Z,85.26
2017-10-02T04:58:53.414Z,85.67
2017-10-02T05:01:20.854Z,85.57
2017-10-02T05:03:48.326Z,86.08
2017-10-02T05:06:15.698Z,85.97
2017-10-02T05:08:43.086Z,86.38
2017-10-02T05:11:10.491Z,85.83
2017-10-02T05:13:37.875Z,86.49
2017-10-02T05:16:05.287Z,86.31
2017-10-02T05:18:32.674Z,85.50
2017-10-02T05:21:00.086Z,85.89
2017-10-02T05:23:27.470Z,85.96
2017-10-02T05:25:54.871Z,86.02
2017-10-02T05:28:22.254Z,86.07
2017-10-02T05:30:49.719Z,86.71
2017-10-02T05:33:17.112Z,87.02
2017-10-02T05:35:44.510Z,87.09
2017-10-02T05:38:11.896Z,87.49
2017-10-02T05:40:39.298Z,87.66
2017-10-02T05:43:06.690Z,86.72
2017-10-02T05:45:34.146Z,87.12
2017-10-02T05:48:01.539Z,86.91
2017-10-02T05:50:28.977Z,87.61
2017-10-02T05:52:56.350Z,88.27
2017-10-02T05:55:23.759Z,88.12
2017-10-02T05:57:51.158Z,87.99
2017-10-02T06:00:18.550Z,88.09
2017-10-02T06:02:46.037Z,88.71
2017-10-02T06:05:13.431Z,88.86
2017-10-02T06:07:40.846Z,88.59
2017-10-02T06:10:08.303Z,88.80
2017-10-02T06:12:35.705Z,89.08
2017-10-02T06:15:03.094Z,89.61
2017-10-02T06:17:30.498Z,89.89
2017-10-02T06:19:57.893Z,89.82
2017-10-02T06:22:25.295Z,89.60
2017-10-02T06:24:52.679Z,89.03
2017-10-02T06:27:20.079Z,89.34
2017-10-02T06:29:47.475Z,89.14
2017-10-02T06:32:14.878Z,88.83
2017-10-02T06:34:42.276Z,89.16
2017-10-02T06:37:09.737Z,89.58
2017-10-02T06:39:37.114Z,90.01
2017-10-02T06:42:04.514Z,89.94
2017-10-02T06:44:31.901Z,89.92
2017-10-02T06:46:59.298Z,89.65
2017-10-02T06:49:26.689Z,89.54
2017-10-02T06:51:54.082Z,89.99
2017-10-02T06:54:21.479Z,89.76
2017-10-02T06:56:48.898Z,89.35
2017-10-02T06:59:16.282Z,89.22
2017-10-02T07:01:43.673Z,89.48
2017-10-02T07:04:11.222Z,89.70
2017-10-02T07:06:38.619Z,89.10
2017-10-02T07:09:06.012Z,89.04
2017-10-02T07:11:33.408Z,88.56
2017-10-02T07:14:00.811Z,88.59
2017-10-02T07:16:28.201Z,88.99
2017-10-02T07:18:55.662Z,89.63
2017-10-02T07:21:23.114Z,89.36
2017-10-02T07:23:50.506Z,89.54
2017-10-02T07:26:17.894Z,89.28
2017-10-02T07:28:45.289Z,89.13
2017-10-02T07:31:12.687Z,89.51
2017-10-02T07:33:40.198Z,90.02
2017-10-02T07:36:07.586Z,89.39
2017-10-02T07:38:34.980Z,89.27
2017-10-02T07:41:02.385Z,89.09
2017-10-02T07:43:29.771Z,89.14
2017-10-02T07:45:57.170Z,89.04
2017-10-02T07:48:24.550Z,88.66
2017-10-02T07:50:51.978Z,88.65
2017-10-02T07:53:19.362Z,88.75
2017-10-02T07:55:46.759Z,88.73
2017-10-02T07:58:14.150Z,89.07
2017-10-02T08:00:41.566Z,89.46
2017-10-02T08:03:08.958Z,88.54
2017-10-02T08:05:36.380Z,88.89
2017-10-02T08:08:03.762Z,88.71
2017-10-02T08:10:31.162Z,89.01
2017-10-02T08:12:58.555Z,88.96
2017-10-02T08:15:25.951Z,90.08
2017-10-02T08:17:53.343Z,90.04
2017-10-02T08:20:20.736Z,90.62
2017-10-02T08:22:48.127Z,90.87
2017-10-02T08:25:15.530Z,90.82
2017-10-02T08:27:42.914Z,90.71
2017-10-02T08:30:10.307Z,90.74
2017-10-02T08:32:37.718Z,91.24
2017-10-02T08:35:05.100Z,90.89
2017-10-02T08:37:32.503Z,91.18
2017-10-02T08:39:59.890Z,91.00
2017-10-02T08:42:27.283Z,91.20
2017-10-02T08:44:54.679Z,91.07
2017-10-02T08:47:22.071Z,90.75
2017-10-02T08:49:49.458Z,90.15
2017-10-02T08:52:16.856Z,90.43
2017-10-02T08:54:44.239Z,90.46
2017-10-02T08:57:11.631Z,90.36
2017-10-02T08:59:39.018Z,90.20
2017-10-02T09:02:06.582Z,90.37
2017-10-02T09:04:33.990Z,90.67
2017-10-02T09:07:01.382Z,90.82
2017-10-02T09:09:28.768Z,90.45
2017-10-02T09:11:56.162Z,90.16
2017-10-02T09:14:23.551Z,90.14
2017-10-02T09:16:50.940Z,90.04
2017-10-02T09:19:18.322Z,89.53
2017-10-02T09:21:45.712Z,89.62
2017-10-02T09:24:13.185Z,89.25
2017-10-02T09:26:40.566Z,89.51
2017-10-02T09:29:07.964Z,89.57
2017-10-02T09:31:35.359Z,89.86
2017-10-02T09:34:02.751Z,89.82
2017-10-02T09:36:30.139Z,89.97
2017-10-02T09:38:57.536Z,89.72
2017-10-02T09:41:24.922Z,89.48
2017-10-02T09:43:52.314Z,89.52
2017-10-02T09:46:19.700Z,89.15
2017-10-02T09:48:47.107Z,89.38
2017-10-02T09:51:14.495Z,88.77
2017-10-02T09:53:41.935Z,87.95
2017-10-02T09:56:09.318Z,88.44
2017-10-02T09:58:36.752Z,87.79
2017-10-02T10:01:04.133Z,87.73
2017-10-02T10:03:31.647Z,88.46
2017-10-02T10:05:59.034Z,88.34
2017-10-02T10:08:26.486Z,87.58
2017-10-02T10:10:53.878Z,87.68
2017-10-02T10:13:21.266Z,86.86
2017-10-02T10:15:48.818Z,87.32
2017-10-02T10:18:16.319Z,86.02
2017-10-02T10:20:43.706Z,85.84
2017-10-02T10:23:11.094Z,86.22
2017-10-02T10:25:38.496Z,85.99
2017-10-02T10:28:05.879Z,86.67
2017-10-02T10:30:33.273Z,86.09
2017-10-02T10:33:00.667Z,86.65
2017-10-02T10:35:28.068Z,85.76
2017-10-02T10:37:55.554Z,86.33
2017-10-02T10:40:23.018Z,85.48
2017-10-02T10:42:50.402Z,85.42
2017-10-02T10:45:17.798Z,85.45
2017-10-02T10:47:45.192Z,84.79
2017-10-02T10:50:12.582Z,84.84
2017-10-02T10:52:39.974Z,84.36
2017-10-02T10:55:07.450Z,85.21
2017-10-02T10:57:34.838Z,84.55
2017-10-02T11:00:02.238Z,84.38
2017-10-02T11:02:29.628Z,84.41
2017-10-02T11:04:57.125Z,84.07
2017-10-02T11:07:24.696Z,83.99
2017-10-02T11:09:52.106Z,84.02
2017-10-02T11:12:19.490Z,82.72
2017-10-02T11:14:46.950Z,82.39
2017-10-02T11:17:14.344Z,82.71
2017-10-02T11:19:41.734Z,82.71
2017-10-02T11:22:09.122Z,81.76
2017-10-02T11:24:36.561Z,82.53
2017-10-02T11:27:03.950Z,81.48
2017-10-02T11:29:31.377Z,79.50
2017-10-02T11:31:58.840Z,79.53
2017-10-02T11:34:26.242Z,79.17
2017-10-02T11:36:53.630Z,77.28
2017-10-02T11:39:21.031Z,77.95
2017-10-02T11:41:48.429Z,76.16
2017-10-02T11:44:15.914Z,74.50
2017-10-02T11:46:43.321Z,75.42
2017-10-02T11:49:10.712Z,72.72
2017-10-02T11:51:38.118Z,72.74
2017-10-02T11:54:05.514Z,72.04
2017-10-02T11:56:32.994Z,72.57
2017-10-02T11:59:00.390Z,73.81
2017-10-02T12:01:27.778Z,72.73
2017-10-02T12:03:55.182Z,73.41
2017-10-02T12:06:22.571Z,74.74
2017-10-02T12:08:50.075Z,75.34
2017-10-02T12:11:17.471Z,76.42
2017-10-02T12:13:44.862Z,76.53
2017-10-02T12:16:12.312Z,75.40
2017-10-02T12:21:13.462Z,75.41
2017-10-02T12:23:40.867Z,76.09
2017-10-02T12:26:08.325Z,77.26
2017-10-02T12:28:35.721Z,77.84
2017-10-02T12:31:03.102Z,78.65
2017-10-02T12:33:30.498Z,78.93
2017-10-02T12:35:57.890Z,80.02
2017-10-02T12:38:25.286Z,78.83
2017-10-02T12:40:52.678Z,79.06
2017-10-02T12:43:20.079Z,79.30
2017-10-02T12:45:47.562Z,78.72
2017-10-02T12:48:14.958Z,79.98
2017-10-02T12:50:42.353Z,80.34
2017-10-02T12:53:09.749Z,81.06
2017-10-02T12:55:37.143Z,80.59
2017-10-02T12:58:04.641Z,78.08
2017-10-02T13:00:32.038Z,79.29
2017-10-02T13:02:59.451Z,79.83
2017-10-02T13:05:26.837Z,78.12
2017-10-02T13:07:54.226Z,77.24
2017-10-02T13:10:21.630Z,76.95
2017-10-02T13:12:49.078Z,76.83
2017-10-02T13:15:16.476Z,75.08
2017-10-02T13:17:43.864Z,73.47
2017-10-02T13:20:11.268Z,74.92
2017-10-02T13:22:38.654Z,74.19
2017-10-02T13:25:06.055Z,73.72
2017-10-02T13:27:33.446Z,73.09
2017-10-02T13:30:00.843Z,72.85
2017-10-02T13:32:28.226Z,71.56
2017-10-02T13:34:55.622Z,72.03
2017-10-02T13:37:23.006Z,69.12
2017-10-02T13:39:50.494Z,67.44
2017-10-02T13:42:17.886Z,66.78
2017-10-02T13:44:45.278Z,67.56
2017-10-02T13:47:12.676Z,68.57
2017-10-02T13:49:40.067Z,68.98
2017-10-02T13:52:07.462Z,68.03
2017-10-02T13:54:34.851Z,67.94
2017-10-02T13:57:02.260Z,65.52
2017-10-02T13:59:30.272Z,66.77
2017-10-02T14:01:57.677Z,66.74
2017-10-02T14:04:25.062Z,66.67
2017-10-02T14:06:52.462Z,66.61
2017-10-02T14:09:19.854Z,66.78
2017-10-02T14:11:47.258Z,64.51
2017-10-02T14:14:14.646Z,65.31
2017-10-02T14:16:42.038Z,65.66
2017-10-02T14:19:09.426Z,65.87
2017-10-02T14:21:36.830Z,64.90
2017-10-02T14:24:04.223Z,64.56
2017-10-02T14:26:31.610Z,64.81
2017-10-02T14:28:59.082Z,65.38
2017-10-02T14:31:26.530Z,65.50
2017-10-02T14:33:53.930Z,65.35
2017-10-02T14:36:21.318Z,66.28
2017-10-02T14:38:48.728Z,64.95
2017-10-02T14:41:16.119Z,65.98
2017-10-02T14:43:43.516Z,65.24
2017-10-02T14:46:10.902Z,63.78
2017-10-02T14:48:38.299Z,63.91
2017-10-02T14:51:05.687Z,64.23
2017-10-02T14:53:33.084Z,62.67
2017-10-02T14:56:00.474Z,62.24
2017-10-02T14:58:27.874Z,62.35
2017-10-02T15:00:55.266Z,62.47
2017-10-02T15:03:22.774Z,62.92
2017-10-02T15:05:50.210Z,63.35
2017-10-02T15:08:17.606Z,63.11
2017-10-02T15:10:44.994Z,62.94
2017-10-02T15:13:12.434Z,62.93
2017-10-02T15:15:39.818Z,63.89
2017-10-02T15:18:07.216Z,64.06
2017-10-02T15:20:34.699Z,63.49
2017-10-02T15:23:02.158Z,63.44
2017-10-02T15:25:29.610Z,64.58
2017-10-02T15:27:57.015Z,64.10
2017-10-02T15:30:24.407Z,63.77
2017-10-02T15:32:51.803Z,65.24
2017-10-02T15:35:19.198Z,63.59
2017-10-02T15:37:46.698Z,64.03
2017-10-02T15:40:14.090Z,63.57
2017-10-02T15:42:41.480Z,62.54
2017-10-02T15:45:08.894Z,62.71
2017-10-02T15:47:36.270Z,63.23
2017-10-02T15:50:03.666Z,64.10
2017-10-02T15:52:31.137Z,65.08
2017-10-02T15:54:58.527Z,64.18
2017-10-02T15:57:25.915Z,64.17
2017-10-02T15:59:53.400Z,63.58
2017-10-02T16:02:20.796Z,64.46
2017-10-02T16:04:48.203Z,65.12
2017-10-02T16:07:15.589Z,64.39
2017-10-02T16:09:42.974Z,64.10
2017-10-02T16:12:10.370Z,64.23
2017-10-02T16:14:37.762Z,63.80
2017-10-02T16:17:05.158Z,64.06
2017-10-02T16:19:32.546Z,64.11
2017-10-02T16:21:59.975Z,64.46
2017-10-02T16:24:27.420Z,64.03
2017-10-02T16:26:54.811Z,63.50
2017-10-02T16:29:22.218Z,64.96
2017-10-02T16:31:49.618Z,64.12
2017-10-02T16:34:17.014Z,64.66
2017-10-02T16:36:44.418Z,64.88
2017-10-02T16:39:11.890Z,65.70
2017-10-02T16:41:39.282Z,66.45
2017-10-02T16:44:06.671Z,66.34
2017-10-02T16:46:34.073Z,69.50
2017-10-02T16:49:01.463Z,70.12
2017-10-02T16:51:28.861Z,69.66
2017-10-02T16:53:56.256Z,71.05
2017-10-02T16:56:23.661Z,73.39
2017-10-02T16:58:51.139Z,75.24
2017-10-02T17:01:18.558Z,78.53
2017-10-02T17:03:46.046Z,78.11
2017-10-02T17:06:13.446Z,78.00
2017-10-02T17:08:40.846Z,76.66
2017-10-02T17:11:08.246Z,77.78
2017-10-02T17:13:35.648Z,77.52
2017-10-02T17:16:03.044Z,76.70
2017-10-02T17:18:30.446Z,76.94
2017-10-02T17:20:57.934Z,76.60
2017-10-02T17:23:25.330Z,76.20
2017-10-02T17:25:52.726Z,76.63
2017-10-02T17:28:20.124Z,76.14
2017-10-02T17:30:47.520Z,75.97
2017-10-02T17:33:14.919Z,75.46
2017-10-02T17:35:42.306Z,75.81
2017-10-02T17:38:09.702Z,75.57
2017-10-02T17:40:37.090Z,75.47
2017-10-02T17:43:04.498Z,74.92
2017-10-02T17:45:31.902Z,76.06
2017-10-02T17:47:59.303Z,77.15
2017-10-02T17:50:26.697Z,76.81
2017-10-02T17:52:54.106Z,77.61
2017-10-02T17:55:21.510Z,77.21
2017-10-02T17:57:48.894Z,77.29
2017-10-02T18:00:16.286Z,78.52
2017-10-02T18:02:43.786Z,77.96
2017-10-02T18:05:11.177Z,77.78
2017-10-02T18:07:38.598Z,78.24
2017-10-02T18:10:06.006Z,76.77
2017-10-02T18:12:33.456Z,77.05
2017-10-02T18:15:00.883Z,76.26
2017-10-02T18:17:28.254Z,76.43
2017-10-02T18:19:55.657Z,77.36
2017-10-02T18:22:23.095Z,78.52
2017-10-02T18:24:50.594Z,77.31
2017-10-02T18:27:18.014Z,77.27
2017-10-02T18:29:46.255Z,76.93
2017-10-02T18:32:13.655Z,77.15
2017-10-02T18:34:41.054Z,76.70
2017-10-02T18:37:08.515Z,77.01
2017-10-02T18:39:35.947Z,76.98
2017-10-02T18:42:03.368Z,77.21
2017-10-02T18:44:30.953Z,76.88
2017-10-02T18:46:58.342Z,76.29
2017-10-02T18:49:25.730Z,76.43
2017-10-02T18:51:53.130Z,77.35
2017-10-02T18:54:20.522Z,76.72
2017-10-02T18:56:47.922Z,77.66
2017-10-02T18:59:15.550Z,77.60
2017-10-02T19:01:42.943Z,78.55
2017-10-02T19:04:10.382Z,78.99
2017-10-02T19:06:37.782Z,78.66
2017-10-02T19:09:05.179Z,78.70
2017-10-02T19:11:32.577Z,78.79
2017-10-02T19:13:59.986Z,78.29
2017-10-02T19:16:27.532Z,77.32
2017-10-02T19:18:54.943Z,77.14
2017-10-02T19:21:22.406Z,77.04
2017-10-02T19:23:49.798Z,77.52
2017-10-02T19:26:17.224Z,77.69
2017-10-02T19:28:44.817Z,77.67
2017-10-02T19:31:13.107Z,77.70
2017-10-02T19:33:40.617Z,77.20
2017-10-02T19:36:08.090Z,77.42
2017-10-02T19:38:35.509Z,77.29
2017-10-02T19:41:02.915Z,76.46
2017-10-02T19:43:30.421Z,75.68
2017-10-02T19:45:57.900Z,76.26
2017-10-02T19:48:25.342Z,76.09
2017-10-02T19:50:52.734Z,77.33
2017-10-02T19:53:20.148Z,76.59
2017-10-02T19:55:47.533Z,76.45
2017-10-02T19:58:14.934Z,77.28
2017-10-02T20:00:43.427Z,77.57
2017-10-02T20:03:10.927Z,77.69
2017-10-02T20:05:38.310Z,77.93
2017-10-02T20:08:05.726Z,78.65
2017-10-02T20:10:33.109Z,79.06
2017-10-02T20:13:00.538Z,78.22
2017-10-02T20:15:27.978Z,78.17
2017-10-02T20:17:55.377Z,77.55
2017-10-02T20:20:22.779Z,78.14
2017-10-02T20:22:50.264Z,77.88
2017-10-02T20:25:17.654Z,77.11
2017-10-02T20:27:45.042Z,77.19
2017-10-02T20:30:12.451Z,77.45
2017-10-02T20:32:39.841Z,77.42
2017-10-02T20:35:07.347Z,76.31
2017-10-02T20:37:34.734Z,75.11
2017-10-02T20:40:02.138Z,75.15
2017-10-02T20:42:29.617Z,75.49
2017-10-02T20:44:57.014Z,75.87
2017-10-02T20:47:24.411Z,76.28
2017-10-02T20:49:51.890Z,76.13
2017-10-02T20:52:19.276Z,77.18
2017-10-02T20:54:46.669Z,76.61
2017-10-02T20:57:14.064Z,76.52
2017-10-02T20:59:41.522Z,75.53
2017-10-02T21:02:08.898Z,76.07
2017-10-02T21:04:36.332Z,76.71
2017-10-02T21:07:03.722Z,75.48
2017-10-02T21:09:31.122Z,75.33
2017-10-02T21:11:58.505Z,75.33
2017-10-02T21:14:25.906Z,74.98
2017-10-02T21:16:53.296Z,75.51
2017-10-02T21:19:20.695Z,74.53
2017-10-02T21:21:48.086Z,74.53
2017-10-02T21:24:15.486Z,74.42
2017-10-02T21:26:42.962Z,75.30
2017-10-02T21:29:10.373Z,74.65
2017-10-02T21:31:37.762Z,75.64
2017-10-02T21:34:05.279Z,75.93
2017-10-02T21:36:32.666Z,76.12
2017-10-02T21:39:00.095Z,75.11
2017-10-02T21:41:27.496Z,76.09
2017-10-02T21:43:54.883Z,76.61
2017-10-02T21:46:22.380Z,76.92
2017-10-02T21:48:49.770Z,76.81
2017-10-02T21:51:17.196Z,76.44
2017-10-02T21:53:44.582Z,77.76
2017-10-02T21:56:12.094Z,77.75
2017-10-02T21:58:39.487Z,77.40
2017-10-02T22:01:06.897Z,76.87
2017-10-02T22:03:34.278Z,75.97
2017-10-02T22:06:01.678Z,76.53
2017-10-02T22:08:29.077Z,77.16
2017-10-02T22:10:56.474Z,77.22
2017-10-02T22:13:23.874Z,77.09
2017-10-02T22:15:51.277Z,77.66
2017-10-02T22:18:18.690Z,77.73
2017-10-02T22:20:46.099Z,77.23
2017-10-02T22:23:13.481Z,77.64
2017-10-02T22:25:40.946Z,76.80
2017-10-02T22:28:08.337Z,77.69
2017-10-02T22:30:35.731Z,77.34
2017-10-02T22:33:03.148Z,76.90
2017-10-02T22:35:30.537Z,76.55
2017-10-02T22:37:57.934Z,76.29
2017-10-02T22:40:25.327Z,76.49
2017-10-02T22:42:52.727Z,76.62
2017-10-02T22:45:20.199Z,76.46
2017-10-02T22:47:47.662Z,76.37
2017-10-02T22:50:15.046Z,76.22
2017-10-02T22:52:42.450Z,75.91
2017-10-02T22:55:09.840Z,76.81
2017-10-02T22:57:37.234Z,76.96
2017-10-02T23:00:04.618Z,76.16
2017-10-02T23:02:32.024Z,76.35
2017-10-02T23:04:59.414Z,76.68
2017-10-02T23:07:26.814Z,76.38
2017-10-02T23:09:54.198Z,76.74
2017-10-02T23:12:21.615Z,76.58
2017-10-02T23:14:49.008Z,77.26
2017-10-02T23:17:16.403Z,77.36
2017-10-02T23:19:43.810Z,77.53
2017-10-02T23:22:11.230Z,76.99
2017-10-02T23:24:38.625Z,77.07
2017-10-02T23:27:06.042Z,77.37
2017-10-02T23:29:33.444Z,77.21
2017-10-02T23:32:00.833Z,76.92
2017-10-02T23:34:28.235Z,77.34
2017-10-02T23:36:55.627Z,76.04
2017-10-02T23:39:23.027Z,75.86
2017-10-02T23:41:50.423Z,75.88
2017-10-02T23:44:18.447Z,76.55
2017-10-02T23:46:46.430Z,78.20
2017-10-02T23:49:13.865Z,80.51
2017-10-02T23:51:41.266Z,80.88
2017-10-02T23:54:08.682Z,81.09
2017-10-02T23:56:36.067Z,80.57
2017-10-02T23:59:03.516Z,81.18
